Susquehanna — WDD9976 — position and weather

sailwx.info

Track history (hours):
 
Tides and Currents Weather Stations Pressure Air Temp Water Temp Dewpoint Dewpoint Depression Visibility Wind Speed Wind Dir Waves Ship Positions

Susquehanna

Owner: Vane Line Bunkering, Inc., Baltimore, MD. More information available from US FCC via Universal Licensing System and Coast Guard Vessel Documentation Center.

Last reported at 2015-Apr-18 18:33 UTC. Time now 2015-Apr-18 20:47 UTC.
Position N 39°60' W 073°56'.

Length 28 m; draft 4.2 m.

Type: Tug. MMSI: 367318750.

Date/timePositionNaut miles runAvg speedWind from/ knotsBaromVisibWave heightAir tempDewpointWater temp
2015-Apr-18 18:33N 39°60' W 073°56'8 8.1
2015-Apr-18 17:33N 39°52' W 073°57'8 7.9
2015-Apr-18 16:33N 39°44' W 073°58'8 8.0
2015-Apr-18 15:33N 39°37' W 074°03'8 8.0
2015-Apr-18 14:33N 39°30' W 074°08'11 8.0
2015-Apr-18 13:13N 39°21' W 074°16'5 8.0
2015-Apr-18 12:33N 39°17' W 074°20'8 7.9
2015-Apr-18 11:33N 39°11' W 074°27'8 7.9
2015-Apr-18 10:34N 39°05' W 074°34'8 7.4
2015-Apr-18 09:33N 38°60' W 074°40'8 7.3
2015-Apr-18 08:31N 38°54' W 074°47'7 7.1
2015-Apr-18 07:33N 38°49' W 074°53'7 7.2
2015-Apr-18 06:33N 38°49' W 075°02'10 9.6
2015-Apr-18 05:33N 38°58' W 075°07'10 9.6
2015-Apr-18 04:33N 39°07' W 075°13'9 8.7
2015-Apr-18 03:33N 39°14' W 075°19'7 6.7
2015-Apr-18 02:33N 39°19' W 075°24'5 4.9
2015-Apr-18 01:33N 39°23' W 075°29'6 6.5
2015-Apr-18 00:33N 39°28' W 075°34'7 7.0
2015-Apr-17 23:33N 39°35' W 075°33'9 8.6
2015-Apr-17 22:33N 39°43' W 075°30'7 7.4
2015-Apr-17 21:33N 39°49' W 075°24'0 0.0
2015-Apr-17 20:32N 39°49' W 075°24'1 0.7
2015-Apr-17 19:32N 39°49' W 075°25'0 0.0
2015-Apr-17 18:32N 39°49' W 075°25'0 0.0
2015-Apr-17 17:33N 39°49' W 075°25'0 0.0
2015-Apr-17 16:31N 39°49' W 075°25'0 0.0
2015-Apr-17 15:31N 39°49' W 075°25'0 0.0
2015-Apr-17 14:32N 39°49' W 075°25'0 0.0
2015-Apr-17 13:33N 39°49' W 075°25'0 0.0
2015-Apr-17 12:33N 39°49' W 075°25'0 0.0
2015-Apr-17 11:31N 39°49' W 075°25'0 0.0
2015-Apr-17 10:32N 39°49' W 075°25'0 0.0
2015-Apr-17 09:32N 39°49' W 075°25'0 0.0
2015-Apr-17 08:33N 39°49' W 075°25'0 0.0
2015-Apr-17 07:31N 39°49' W 075°25'0 0.0
2015-Apr-17 06:32N 39°49' W 075°25'0 0.0
2015-Apr-17 05:32N 39°49' W 075°25'0 0.0
2015-Apr-17 04:30N 39°49' W 075°25'0 0.0
2015-Apr-17 03:33N 39°49' W 075°25'0 0.0
2015-Apr-17 02:31N 39°49' W 075°25'0 0.0
2015-Apr-17 01:32N 39°49' W 075°25'0 0.0
2015-Apr-17 00:32N 39°49' W 075°25'0 0.0
2015-Apr-16 23:33N 39°49' W 075°25'0 0.4
2015-Apr-16 22:33N 39°48' W 075°25'0 0.0
2015-Apr-16 21:33N 39°48' W 075°25'3 3.1
2015-Apr-16 20:33N 39°50' W 075°21'8 8.0
2015-Apr-16 19:33N 39°54' W 075°12'0 0.3
2015-Apr-16 18:33N 39°54' W 075°12'0 0.0
2015-Apr-16 17:33N 39°54' W 075°12'2 1.7
2015-Apr-16 16:33N 39°52' W 075°13'0 0.1
2015-Apr-16 15:33N 39°52' W 075°13'2 1.5
2015-Apr-16 14:29N 39°54' W 075°12'0 0.0
2015-Apr-16 13:32N 39°54' W 075°12'0 0.0
2015-Apr-16 12:27N 39°54' W 075°12'0 0.0
2015-Apr-16 11:31N 39°54' W 075°12'0 0.0
2015-Apr-16 10:31N 39°54' W 075°12'0 0.0
2015-Apr-16 09:29N 39°54' W 075°12'0 0.0
2015-Apr-16 08:33N 39°54' W 075°12'0 0.0
2015-Apr-16 07:33N 39°54' W 075°12'0 0.0
2015-Apr-16 06:28N 39°54' W 075°12'0 0.0
2015-Apr-16 05:32N 39°54' W 075°12'0 0.0
2015-Apr-16 04:32N 39°54' W 075°12'0 0.0
2015-Apr-16 03:33N 39°54' W 075°12'0 0.0
2015-Apr-16 02:31N 39°54' W 075°12'0 0.0
2015-Apr-16 01:28N 39°54' W 075°12'0 0.0
2015-Apr-16 00:26N 39°54' W 075°12'0 0.0
2015-Apr-15 23:33N 39°54' W 075°12'0 0.1
2015-Apr-15 22:33N 39°54' W 075°12'0 0.0
2015-Apr-15 21:34N 39°54' W 075°12'0 0.0
2015-Apr-15 20:31N 39°54' W 075°12'0 0.0
2015-Apr-15 19:32N 39°54' W 075°12'0 0.0
2015-Apr-15 18:33N 39°54' W 075°12'0 0.0
2015-Apr-15 17:33N 39°54' W 075°12'0 0.0
2015-Apr-15 16:31N 39°54' W 075°12'0 0.0
2015-Apr-15 15:33N 39°54' W 075°12'0 0.0
2015-Apr-15 14:31N 39°54' W 075°12'0 0.0
2015-Apr-15 13:32N 39°54' W 075°12'0 0.2
2015-Apr-15 12:33N 39°54' W 075°12'0 0.2
2015-Apr-15 11:31N 39°54' W 075°12'0 0.0
2015-Apr-15 10:32N 39°54' W 075°12'0 0.1
2015-Apr-15 09:32N 39°54' W 075°12'0 0.1
2015-Apr-15 08:32N 39°54' W 075°12'0 0.0
2015-Apr-15 07:33N 39°54' W 075°12'0 0.0
2015-Apr-15 06:33N 39°54' W 075°12'0 0.0
2015-Apr-15 05:31N 39°54' W 075°12'0 0.0
2015-Apr-15 04:32N 39°54' W 075°12'0 0.0
2015-Apr-15 03:32N 39°54' W 075°12'0 0.0
2015-Apr-15 02:30N 39°54' W 075°12'0 0.0
2015-Apr-15 01:31N 39°54' W 075°12'0 0.0
2015-Apr-15 00:31N 39°54' W 075°12'0 0.0
2015-Apr-14 23:32N 39°54' W 075°12'0 0.0
2015-Apr-14 22:33N 39°54' W 075°12'0 0.0
2015-Apr-14 21:33N 39°54' W 075°12'0 0.0
2015-Apr-14 20:31N 39°54' W 075°12'0 0.0
2015-Apr-14 19:32N 39°54' W 075°12'0 0.0
2015-Apr-14 18:32N 39°54' W 075°12'0 0.0
2015-Apr-14 17:33N 39°54' W 075°12'0 0.0
2015-Apr-14 16:31N 39°54' W 075°12'0 0.0
2015-Apr-14 15:31N 39°54' W 075°12'0 0.0
2015-Apr-14 14:29N 39°54' W 075°12'0 0.0
2015-Apr-14 13:33N 39°54' W 075°12'0 0.0
2015-Apr-14 12:33N 39°54' W 075°12'0 0.0
2015-Apr-14 11:31N 39°54' W 075°12'0 0.0
2015-Apr-14 10:32N 39°54' W 075°12'0 0.0
2015-Apr-14 09:32N 39°54' W 075°12'0 0.0
2015-Apr-14 08:33N 39°54' W 075°12'0 0.0
2015-Apr-14 07:31N 39°54' W 075°12'0 0.0
2015-Apr-14 06:31N 39°54' W 075°12'0 0.0
2015-Apr-14 05:32N 39°54' W 075°12'0 0.0
2015-Apr-14 04:33N 39°54' W 075°12'0 0.0
2015-Apr-14 03:33N 39°54' W 075°12'0 0.0
2015-Apr-14 02:31N 39°54' W 075°12'0 0.0
2015-Apr-14 01:32N 39°54' W 075°12'0 0.0
2015-Apr-14 00:32N 39°54' W 075°12'0 0.0
2015-Apr-13 23:33N 39°54' W 075°12'0 0.0
2015-Apr-13 22:31N 39°54' W 075°12'0 0.0
2015-Apr-13 21:26N 39°54' W 075°12'0 0.0
2015-Apr-13 20:32N 39°54' W 075°12'0 0.0
2015-Apr-13 19:33N 39°54' W 075°12'0 0.0
2015-Apr-13 18:33N 39°54' W 075°12'0 0.0
2015-Apr-13 17:31N 39°54' W 075°12'0 0.0
2015-Apr-13 16:29N 39°54' W 075°12'  
Track history (hours):
 
Tides and Currents Weather Stations Pressure Air Temp Water Temp Dewpoint Dewpoint Depression Visibility Wind Speed Wind Dir Waves Ship Positions

Susquehanna

Owner: Vane Line Bunkering, Inc., Baltimore, MD. More information available from US FCC via Universal Licensing System and Coast Guard Vessel Documentation Center.

Last reported at 2015-Apr-18 18:33 UTC. Time now 2015-Apr-18 20:47 UTC.
Position N 39°60' W 073°56'.

Length 28 m; draft 4.2 m.

Type: Tug. MMSI: 367318750.

Date/timePositionNaut miles runAvg speedWind from/ knotsBaromVisibWave heightAir tempDewpointWater temp
2015-Apr-18 18:33N 39°60' W 073°56'8 8.1
2015-Apr-18 17:33N 39°52' W 073°57'8 7.9
2015-Apr-18 16:33N 39°44' W 073°58'8 8.0
2015-Apr-18 15:33N 39°37' W 074°03'8 8.0
2015-Apr-18 14:33N 39°30' W 074°08'11 8.0
2015-Apr-18 13:13N 39°21' W 074°16'5 8.0
2015-Apr-18 12:33N 39°17' W 074°20'8 7.9
2015-Apr-18 11:33N 39°11' W 074°27'8 7.9
2015-Apr-18 10:34N 39°05' W 074°34'8 7.4
2015-Apr-18 09:33N 38°60' W 074°40'8 7.3
2015-Apr-18 08:31N 38°54' W 074°47'7 7.1
2015-Apr-18 07:33N 38°49' W 074°53'7 7.2
2015-Apr-18 06:33N 38°49' W 075°02'10 9.6
2015-Apr-18 05:33N 38°58' W 075°07'10 9.6
2015-Apr-18 04:33N 39°07' W 075°13'9 8.7
2015-Apr-18 03:33N 39°14' W 075°19'7 6.7
2015-Apr-18 02:33N 39°19' W 075°24'5 4.9
2015-Apr-18 01:33N 39°23' W 075°29'6 6.5
2015-Apr-18 00:33N 39°28' W 075°34'7 7.0
2015-Apr-17 23:33N 39°35' W 075°33'9 8.6
2015-Apr-17 22:33N 39°43' W 075°30'7 7.4
2015-Apr-17 21:33N 39°49' W 075°24'0 0.0
2015-Apr-17 20:32N 39°49' W 075°24'1 0.7
2015-Apr-17 19:32N 39°49' W 075°25'0 0.0
2015-Apr-17 18:32N 39°49' W 075°25'0 0.0
2015-Apr-17 17:33N 39°49' W 075°25'0 0.0
2015-Apr-17 16:31N 39°49' W 075°25'0 0.0
2015-Apr-17 15:31N 39°49' W 075°25'0 0.0
2015-Apr-17 14:32N 39°49' W 075°25'0 0.0
2015-Apr-17 13:33N 39°49' W 075°25'0 0.0
2015-Apr-17 12:33N 39°49' W 075°25'0 0.0
2015-Apr-17 11:31N 39°49' W 075°25'0 0.0
2015-Apr-17 10:32N 39°49' W 075°25'0 0.0
2015-Apr-17 09:32N 39°49' W 075°25'0 0.0
2015-Apr-17 08:33N 39°49' W 075°25'0 0.0
2015-Apr-17 07:31N 39°49' W 075°25'0 0.0
2015-Apr-17 06:32N 39°49' W 075°25'0 0.0
2015-Apr-17 05:32N 39°49' W 075°25'0 0.0
2015-Apr-17 04:30N 39°49' W 075°25'0 0.0
2015-Apr-17 03:33N 39°49' W 075°25'0 0.0
2015-Apr-17 02:31N 39°49' W 075°25'0 0.0
2015-Apr-17 01:32N 39°49' W 075°25'0 0.0
2015-Apr-17 00:32N 39°49' W 075°25'0 0.0
2015-Apr-16 23:33N 39°49' W 075°25'0 0.4
2015-Apr-16 22:33N 39°48' W 075°25'0 0.0
2015-Apr-16 21:33N 39°48' W 075°25'3 3.1
2015-Apr-16 20:33N 39°50' W 075°21'8 8.0
2015-Apr-16 19:33N 39°54' W 075°12'0 0.3
2015-Apr-16 18:33N 39°54' W 075°12'0 0.0
2015-Apr-16 17:33N 39°54' W 075°12'2 1.7
2015-Apr-16 16:33N 39°52' W 075°13'0 0.1
2015-Apr-16 15:33N 39°52' W 075°13'2 1.5
2015-Apr-16 14:29N 39°54' W 075°12'0 0.0
2015-Apr-16 13:32N 39°54' W 075°12'0 0.0
2015-Apr-16 12:27N 39°54' W 075°12'0 0.0
2015-Apr-16 11:31N 39°54' W 075°12'0 0.0
2015-Apr-16 10:31N 39°54' W 075°12'0 0.0
2015-Apr-16 09:29N 39°54' W 075°12'0 0.0
2015-Apr-16 08:33N 39°54' W 075°12'0 0.0
2015-Apr-16 07:33N 39°54' W 075°12'0 0.0
2015-Apr-16 06:28N 39°54' W 075°12'0 0.0
2015-Apr-16 05:32N 39°54' W 075°12'0 0.0
2015-Apr-16 04:32N 39°54' W 075°12'0 0.0
2015-Apr-16 03:33N 39°54' W 075°12'0 0.0
2015-Apr-16 02:31N 39°54' W 075°12'0 0.0
2015-Apr-16 01:28N 39°54' W 075°12'0 0.0
2015-Apr-16 00:26N 39°54' W 075°12'0 0.0
2015-Apr-15 23:33N 39°54' W 075°12'0 0.1
2015-Apr-15 22:33N 39°54' W 075°12'0 0.0
2015-Apr-15 21:34N 39°54' W 075°12'0 0.0
2015-Apr-15 20:31N 39°54' W 075°12'0 0.0
2015-Apr-15 19:32N 39°54' W 075°12'0 0.0
2015-Apr-15 18:33N 39°54' W 075°12'0 0.0
2015-Apr-15 17:33N 39°54' W 075°12'0 0.0
2015-Apr-15 16:31N 39°54' W 075°12'0 0.0
2015-Apr-15 15:33N 39°54' W 075°12'0 0.0
2015-Apr-15 14:31N 39°54' W 075°12'0 0.0
2015-Apr-15 13:32N 39°54' W 075°12'0 0.2
2015-Apr-15 12:33N 39°54' W 075°12'0 0.2
2015-Apr-15 11:31N 39°54' W 075°12'0 0.0
2015-Apr-15 10:32N 39°54' W 075°12'0 0.1
2015-Apr-15 09:32N 39°54' W 075°12'0 0.1
2015-Apr-15 08:32N 39°54' W 075°12'0 0.0
2015-Apr-15 07:33N 39°54' W 075°12'0 0.0
2015-Apr-15 06:33N 39°54' W 075°12'0 0.0
2015-Apr-15 05:31N 39°54' W 075°12'0 0.0
2015-Apr-15 04:32N 39°54' W 075°12'0 0.0
2015-Apr-15 03:32N 39°54' W 075°12'0 0.0
2015-Apr-15 02:30N 39°54' W 075°12'0 0.0
2015-Apr-15 01:31N 39°54' W 075°12'0 0.0
2015-Apr-15 00:31N 39°54' W 075°12'0 0.0
2015-Apr-14 23:32N 39°54' W 075°12'0 0.0
2015-Apr-14 22:33N 39°54' W 075°12'0 0.0
2015-Apr-14 21:33N 39°54' W 075°12'0 0.0
2015-Apr-14 20:31N 39°54' W 075°12'0 0.0
2015-Apr-14 19:32N 39°54' W 075°12'0 0.0
2015-Apr-14 18:32N 39°54' W 075°12'0 0.0
2015-Apr-14 17:33N 39°54' W 075°12'0 0.0
2015-Apr-14 16:31N 39°54' W 075°12'0 0.0
2015-Apr-14 15:31N 39°54' W 075°12'0 0.0
2015-Apr-14 14:29N 39°54' W 075°12'0 0.0
2015-Apr-14 13:33N 39°54' W 075°12'0 0.0
2015-Apr-14 12:33N 39°54' W 075°12'0 0.0
2015-Apr-14 11:31N 39°54' W 075°12'0 0.0
2015-Apr-14 10:32N 39°54' W 075°12'0 0.0
2015-Apr-14 09:32N 39°54' W 075°12'0 0.0
2015-Apr-14 08:33N 39°54' W 075°12'0 0.0
2015-Apr-14 07:31N 39°54' W 075°12'0 0.0
2015-Apr-14 06:31N 39°54' W 075°12'0 0.0
2015-Apr-14 05:32N 39°54' W 075°12'0 0.0
2015-Apr-14 04:33N 39°54' W 075°12'0 0.0
2015-Apr-14 03:33N 39°54' W 075°12'0 0.0
2015-Apr-14 02:31N 39°54' W 075°12'0 0.0
2015-Apr-14 01:32N 39°54' W 075°12'0 0.0
2015-Apr-14 00:32N 39°54' W 075°12'0 0.0
2015-Apr-13 23:33N 39°54' W 075°12'0 0.0
2015-Apr-13 22:31N 39°54' W 075°12'0 0.0
2015-Apr-13 21:26N 39°54' W 075°12'0 0.0
2015-Apr-13 20:32N 39°54' W 075°12'0 0.0
2015-Apr-13 19:33N 39°54' W 075°12'0 0.0
2015-Apr-13 18:33N 39°54' W 075°12'0 0.0
2015-Apr-13 17:31N 39°54' W 075°12'0 0.0
2015-Apr-13 16:29N 39°54' W 075°12'  

Dump ship's entire track history